createdAt,value
2018-06-05T00:02:27.335Z,28.13
2018-06-05T00:04:55.516Z,29.83
2018-06-05T00:07:23.845Z,30.90
2018-06-05T00:09:52.014Z,30.50
2018-06-05T00:12:20.213Z,28.80
2018-06-05T00:14:48.404Z,29.80
2018-06-05T00:17:16.590Z,28.63
2018-06-05T00:19:44.782Z,30.70
2018-06-05T00:22:12.991Z,31.77
2018-06-05T00:24:41.184Z,33.00
2018-06-05T00:27:09.339Z,34.23
2018-06-05T00:29:37.522Z,31.20
2018-06-05T00:32:05.814Z,30.33
2018-06-05T00:34:33.979Z,33.03
2018-06-05T00:37:02.156Z,32.73
2018-06-05T00:39:30.308Z,33.30
2018-06-05T00:41:58.499Z,33.43
2018-06-05T00:44:26.723Z,31.83
2018-06-05T00:46:55.139Z,32.63
2018-06-05T00:49:23.326Z,32.50
2018-06-05T00:52:02.850Z,32.70
2018-06-05T00:54:31.009Z,33.20
2018-06-05T00:56:59.194Z,34.70
2018-06-05T00:59:27.574Z,33.87
2018-06-05T01:01:55.738Z,34.83
2018-06-05T01:04:23.900Z,35.57
2018-06-05T01:06:52.093Z,33.27
2018-06-05T01:09:20.273Z,34.73
2018-06-05T01:11:48.458Z,33.20
2018-06-05T01:14:16.379Z,34.90
2018-06-05T01:16:44.565Z,36.83
2018-06-05T01:19:12.746Z,36.33
2018-06-05T01:21:40.950Z,34.27
2018-06-05T01:24:09.153Z,35.33
2018-06-05T01:26:37.335Z,33.90
2018-06-05T01:29:05.529Z,34.23
2018-06-05T01:31:33.714Z,36.87
2018-06-05T01:34:01.895Z,34.27
2018-06-05T01:36:30.173Z,35.00
2018-06-05T01:38:58.352Z,37.00
2018-06-05T01:41:26.554Z,35.73
2018-06-05T01:43:54.788Z,37.47
2018-06-05T01:46:22.965Z,38.47
2018-06-05T01:48:51.152Z,36.13
2018-06-05T01:51:19.341Z,34.37
2018-06-05T01:53:47.530Z,37.57
2018-06-05T01:56:15.793Z,38.17
2018-06-05T01:58:44.011Z,34.43
2018-06-05T02:01:12.201Z,35.50
2018-06-05T02:03:40.358Z,39.40
2018-06-05T02:06:08.577Z,40.87
2018-06-05T02:08:36.764Z,36.50
2018-06-05T02:11:04.962Z,36.20
2018-06-05T02:13:33.140Z,38.27
2018-06-05T02:16:01.357Z,42.93
2018-06-05T02:18:29.546Z,36.73
2018-06-05T02:20:57.758Z,40.27
2018-06-05T02:23:25.959Z,37.97
2018-06-05T02:25:54.160Z,39.97
2018-06-05T02:28:22.360Z,39.50
2018-06-05T02:30:50.539Z,41.63
2018-06-05T02:33:18.745Z,39.43
2018-06-05T02:35:47.709Z,38.37
2018-06-05T02:38:15.875Z,42.80
2018-06-05T02:40:44.065Z,44.10
2018-06-05T02:43:12.232Z,42.60
2018-06-05T02:45:40.402Z,42.20
2018-06-05T02:48:08.589Z,43.50
2018-06-05T02:50:36.806Z,42.10
2018-06-05T02:53:05.049Z,42.43
2018-06-05T02:55:33.216Z,42.47
2018-06-05T02:58:01.532Z,41.33
2018-06-05T03:00:29.751Z,38.93
2018-06-05T03:02:57.918Z,42.33
2018-06-05T03:05:26.176Z,43.30
2018-06-05T03:07:54.913Z,38.90
2018-06-05T03:10:23.090Z,40.13
2018-06-05T03:12:51.302Z,41.17
2018-06-05T03:15:19.473Z,42.10
2018-06-05T03:17:47.668Z,39.67
2018-06-05T03:20:15.870Z,39.00
2018-06-05T03:22:44.048Z,41.77
2018-06-05T03:25:12.255Z,38.07
2018-06-05T03:27:40.436Z,41.50
2018-06-05T03:30:08.612Z,36.40
2018-06-05T03:32:36.783Z,41.13
2018-06-05T03:35:05.258Z,37.57
2018-06-05T03:37:33.479Z,35.80
2018-06-05T03:40:01.662Z,34.23
2018-06-05T03:42:29.838Z,38.20
2018-06-05T03:44:58.046Z,36.23
2018-06-05T03:47:26.192Z,35.53
2018-06-05T03:49:54.376Z,36.00
2018-06-05T03:52:22.522Z,38.63
2018-06-05T03:54:50.717Z,35.73
2018-06-05T03:57:18.910Z,39.00
2018-06-05T03:59:47.101Z,39.47
2018-06-05T04:02:15.272Z,38.10
2018-06-05T04:04:43.438Z,35.93
2018-06-05T04:07:11.614Z,33.93
2018-06-05T04:09:39.817Z,36.53
2018-06-05T04:12:08.029Z,35.77
2018-06-05T04:14:36.179Z,31.57
2018-06-05T04:17:04.399Z,35.37
2018-06-05T04:19:32.611Z,36.90
2018-06-05T04:22:00.777Z,35.07
2018-06-05T04:24:28.951Z,31.93
2018-06-05T04:26:57.165Z,32.77
2018-06-05T04:29:25.411Z,32.93
2018-06-05T04:31:53.598Z,31.87
2018-06-05T04:34:21.772Z,32.33
2018-06-05T04:36:50.004Z,30.17
2018-06-05T04:39:18.177Z,30.43
2018-06-05T04:41:46.423Z,33.63
2018-06-05T04:44:14.582Z,29.87
2018-06-05T04:46:42.745Z,30.93
2018-06-05T04:49:10.962Z,31.10
2018-06-05T04:51:39.165Z,31.40
2018-06-05T04:54:07.345Z,32.77
2018-06-05T04:56:35.540Z,31.20
2018-06-05T04:59:03.706Z,32.83
2018-06-05T05:01:31.884Z,32.43
2018-06-05T05:04:00.093Z,33.57
2018-06-05T05:06:28.260Z,31.47
2018-06-05T05:08:56.474Z,33.17
2018-06-05T05:11:24.646Z,37.27
2018-06-05T05:13:52.837Z,39.30
2018-06-05T05:16:21.032Z,35.63
2018-06-05T05:18:49.290Z,39.47
2018-06-05T05:21:19.836Z,38.27
2018-06-05T05:23:48.047Z,39.43
2018-06-05T05:26:16.241Z,44.00
2018-06-05T05:28:44.406Z,41.40
2018-06-05T05:31:12.570Z,37.00
2018-06-05T05:33:40.728Z,41.43
2018-06-05T05:36:08.866Z,44.47
2018-06-05T05:38:37.014Z,41.17
2018-06-05T05:41:05.178Z,43.43
2018-06-05T05:43:33.301Z,41.63
2018-06-05T05:46:01.860Z,39.80
2018-06-05T05:48:30.317Z,41.17
2018-06-05T05:50:58.505Z,38.83
2018-06-05T05:53:26.649Z,37.27
2018-06-05T05:55:54.803Z,39.70
2018-06-05T05:58:23.136Z,39.23
2018-06-05T06:00:51.406Z,35.40
2018-06-05T06:03:19.548Z,40.63
2018-06-05T06:05:47.709Z,39.23
2018-06-05T06:08:15.828Z,38.40
2018-06-05T06:10:43.999Z,39.77
2018-06-05T06:13:12.128Z,39.30
2018-06-05T06:15:40.265Z,39.47
2018-06-05T06:18:08.425Z,40.13
2018-06-05T06:20:36.593Z,40.60
2018-06-05T06:23:04.920Z,44.30
2018-06-05T06:25:33.085Z,42.57
2018-06-05T06:28:01.232Z,40.23
2018-06-05T06:30:29.664Z,42.87
2018-06-05T06:32:57.854Z,38.87
2018-06-05T06:35:26.339Z,40.87
2018-06-05T06:37:54.483Z,35.83
2018-06-05T06:40:22.800Z,37.83
2018-06-05T06:42:50.930Z,41.80
2018-06-05T06:45:19.076Z,51.23
2018-06-05T06:47:48.098Z,82.67
2018-06-05T06:50:16.242Z,45.70
2018-06-05T06:52:44.364Z,39.43
2018-06-05T06:55:12.502Z,36.03
2018-06-05T06:57:40.636Z,41.33
2018-06-05T07:00:08.772Z,39.87
2018-06-05T07:02:36.921Z,39.73
2018-06-05T07:05:05.065Z,37.53
2018-06-05T07:07:33.204Z,38.73
2018-06-05T07:10:01.370Z,40.07
2018-06-05T07:12:29.546Z,42.47
2018-06-05T07:14:57.692Z,40.60
2018-06-05T07:17:26.213Z,43.93
2018-06-05T07:19:54.357Z,43.10
2018-06-05T07:22:22.491Z,46.13
2018-06-05T07:24:50.652Z,43.67
2018-06-05T07:27:18.800Z,45.93
2018-06-05T07:29:46.935Z,45.03
2018-06-05T07:32:15.097Z,45.60
2018-06-05T07:34:43.229Z,46.80
2018-06-05T07:37:11.360Z,50.57
2018-06-05T07:39:39.525Z,49.23
2018-06-05T07:42:07.657Z,49.17
2018-06-05T07:44:35.809Z,49.93
2018-06-05T07:47:03.973Z,47.67
2018-06-05T07:49:32.105Z,51.97
2018-06-05T07:52:01.248Z,49.80
2018-06-05T07:54:29.408Z,44.93
2018-06-05T07:56:57.585Z,47.10
2018-06-05T07:59:25.766Z,46.67
2018-06-05T08:01:53.924Z,45.60
2018-06-05T08:04:22.088Z,45.20
2018-06-05T08:06:50.184Z,45.60
2018-06-05T08:09:18.349Z,41.47
2018-06-05T08:11:46.529Z,43.70
2018-06-05T08:14:14.611Z,40.97
2018-06-05T08:16:42.788Z,38.57
2018-06-05T08:19:10.937Z,39.07
2018-06-05T08:21:39.113Z,38.33
2018-06-05T08:24:07.268Z,39.27
2018-06-05T08:26:46.789Z,37.17
2018-06-05T08:29:14.948Z,42.23
2018-06-05T08:31:43.090Z,43.63
2018-06-05T08:34:11.229Z,38.57
2018-06-05T08:36:39.407Z,38.00
2018-06-05T08:39:08.141Z,39.67
2018-06-05T08:41:42.766Z,35.63
2018-06-05T08:44:10.890Z,34.00
2018-06-05T08:46:39.056Z,38.17
2018-06-05T08:49:07.212Z,36.63
2018-06-05T08:51:35.363Z,33.47
2018-06-05T08:54:03.525Z,37.57
2018-06-05T09:14:45.208Z,38.20
2018-06-05T09:17:13.345Z,40.03
2018-06-05T09:19:41.474Z,36.13
2018-06-05T09:22:09.617Z,35.10
2018-06-05T09:24:37.744Z,37.73
2018-06-05T09:27:05.885Z,35.33
2018-06-05T09:29:34.036Z,38.37
2018-06-05T09:32:02.160Z,38.73
2018-06-05T09:34:30.304Z,41.30
2018-06-05T09:36:58.469Z,36.73
2018-06-05T09:39:26.629Z,33.40
2018-06-05T09:41:54.774Z,36.67
2018-06-05T09:44:22.933Z,34.30
2018-06-05T09:46:50.862Z,35.47
2018-06-05T09:49:18.967Z,34.53
2018-06-05T09:51:47.110Z,35.27
2018-06-05T09:54:15.257Z,35.87
2018-06-05T09:56:43.410Z,35.30
2018-06-05T09:59:11.824Z,41.03
2018-06-05T10:01:39.954Z,36.90
2018-06-05T10:04:08.096Z,33.57
2018-06-05T10:06:36.244Z,34.90
2018-06-05T10:09:05.891Z,34.30
2018-06-05T10:11:33.963Z,35.50
2018-06-05T10:14:08.506Z,35.00
2018-06-05T10:16:36.597Z,36.57
2018-06-05T10:19:04.802Z,38.27
2018-06-05T10:21:32.953Z,37.83
2018-06-05T10:24:01.078Z,36.90
2018-06-05T10:26:29.196Z,37.30
2018-06-05T10:28:57.545Z,33.77
2018-06-05T10:31:25.683Z,38.53
2018-06-05T10:33:53.832Z,36.27
2018-06-05T10:36:21.995Z,36.13
2018-06-05T10:38:50.131Z,35.77
2018-06-05T10:41:18.263Z,36.47
2018-06-05T10:43:46.420Z,38.27
2018-06-05T10:46:14.568Z,36.07
2018-06-05T10:48:42.704Z,36.60
2018-06-05T10:51:10.861Z,36.23
2018-06-05T10:53:39.044Z,37.37
2018-06-05T10:56:07.153Z,34.87
2018-06-05T10:58:35.301Z,34.43
2018-06-05T11:01:03.456Z,35.23
2018-06-05T11:03:31.614Z,33.57
2018-06-05T11:05:59.760Z,33.43
2018-06-05T11:08:27.900Z,33.40
2018-06-05T11:10:56.037Z,37.17
2018-06-05T11:13:24.175Z,35.67
2018-06-05T11:15:52.321Z,35.50
2018-06-05T11:18:20.536Z,32.90
2018-06-05T11:20:48.628Z,32.80
2018-06-05T11:23:16.777Z,36.37
2018-06-05T11:25:44.913Z,31.67
2018-06-05T11:28:13.044Z,32.70
2018-06-05T11:30:41.327Z,31.93
2018-06-05T11:33:09.457Z,33.77
2018-06-05T11:35:37.602Z,35.47
2018-06-05T11:38:05.772Z,32.17
2018-06-05T11:40:33.918Z,30.80
2018-06-05T11:43:02.039Z,30.60
2018-06-05T11:45:30.184Z,36.07
2018-06-05T11:47:58.329Z,30.43
2018-06-05T11:50:26.470Z,31.13
2018-06-05T11:52:54.615Z,32.97
2018-06-05T11:55:22.751Z,32.53
2018-06-05T11:57:50.888Z,35.47
2018-06-05T12:00:19.052Z,33.37
2018-06-05T12:02:47.253Z,35.10
2018-06-05T12:05:15.414Z,33.93
2018-06-05T12:07:43.565Z,34.10
2018-06-05T12:10:11.691Z,31.27
2018-06-05T12:12:39.839Z,31.37
2018-06-05T12:15:08.008Z,33.00
2018-06-05T12:17:36.137Z,35.17
2018-06-05T12:20:04.368Z,33.60
2018-06-05T12:22:32.508Z,34.43
2018-06-05T12:25:00.644Z,30.83
2018-06-05T12:27:29.402Z,37.50
2018-06-05T12:29:57.536Z,29.30
2018-06-05T12:32:25.672Z,33.53
2018-06-05T12:34:53.818Z,33.13
2018-06-05T12:37:21.970Z,30.03
2018-06-05T12:39:50.107Z,31.20
2018-06-05T12:42:18.272Z,32.10
2018-06-05T12:44:46.761Z,33.10
2018-06-05T12:47:14.897Z,31.90
2018-06-05T12:49:43.037Z,32.57
2018-06-05T12:52:11.186Z,33.13
2018-06-05T12:54:39.329Z,35.03
2018-06-05T12:57:07.472Z,34.77
2018-06-05T12:59:35.633Z,32.33
2018-06-05T13:02:03.858Z,34.80
2018-06-05T13:04:31.989Z,34.50
2018-06-05T13:07:00.135Z,30.90
2018-06-05T13:09:28.263Z,36.60
2018-06-05T13:11:56.397Z,33.87
2018-06-05T13:14:24.549Z,38.60
2018-06-05T13:16:52.693Z,34.80
2018-06-05T13:19:20.820Z,33.57
2018-06-05T13:21:48.729Z,34.53
2018-06-05T13:24:16.864Z,34.77
2018-06-05T13:26:44.992Z,32.87
2018-06-05T13:29:13.135Z,37.70
2018-06-05T13:31:41.288Z,33.13
2018-06-05T13:34:09.428Z,35.77
2018-06-05T13:36:37.629Z,37.10
2018-06-05T13:39:08.127Z,39.33
2018-06-05T13:41:36.303Z,37.20
2018-06-05T13:44:04.691Z,35.17
2018-06-05T13:46:32.816Z,34.83
2018-06-05T13:49:00.970Z,33.03
2018-06-05T13:51:29.120Z,32.70
2018-06-05T13:53:57.259Z,35.50
2018-06-05T13:56:25.401Z,33.40
2018-06-05T13:58:53.679Z,35.37
2018-06-05T14:01:21.808Z,33.50
2018-06-05T14:03:49.953Z,35.70
2018-06-05T14:06:18.105Z,34.33
2018-06-05T14:08:46.244Z,33.87
2018-06-05T14:11:14.364Z,32.63
2018-06-05T14:13:42.560Z,32.73
2018-06-05T14:16:10.703Z,33.93
2018-06-05T14:18:38.853Z,33.20
2018-06-05T14:21:07.026Z,33.40
2018-06-05T14:23:35.161Z,38.00
2018-06-05T14:26:03.296Z,34.37
2018-06-05T14:28:31.441Z,38.90
2018-06-05T14:30:59.577Z,32.93
2018-06-05T14:33:27.696Z,36.93
2018-06-05T14:35:56.132Z,32.57
2018-06-05T14:38:24.255Z,33.30
2018-06-05T14:40:52.400Z,31.93
2018-06-05T14:43:20.566Z,31.67
2018-06-05T14:45:48.743Z,36.10
2018-06-05T14:48:16.884Z,35.23
2018-06-05T14:50:45.051Z,34.40
2018-06-05T14:53:13.199Z,37.50
2018-06-05T14:55:41.372Z,31.53
2018-06-05T14:58:09.530Z,33.00
2018-06-05T15:00:37.653Z,32.53
2018-06-05T15:03:06.061Z,69.53
2018-06-05T15:05:34.235Z,39.60
2018-06-05T15:08:02.340Z,39.43
2018-06-05T15:10:30.477Z,40.73
2018-06-05T15:12:58.630Z,40.73
2018-06-05T15:15:26.786Z,40.73
2018-06-05T15:17:54.911Z,36.10
2018-06-05T15:20:23.050Z,38.00
2018-06-05T15:22:51.632Z,41.67
2018-06-05T15:25:19.590Z,41.13
2018-06-05T15:27:47.743Z,37.63
2018-06-05T15:30:15.903Z,41.80
2018-06-05T15:32:44.040Z,40.37
2018-06-05T15:35:12.199Z,34.80
2018-06-05T15:37:40.380Z,34.97
2018-06-05T15:40:08.542Z,33.27
2018-06-05T15:42:36.688Z,36.27
2018-06-05T15:45:04.877Z,31.57
2018-06-05T15:47:33.017Z,30.20
2018-06-05T15:50:01.169Z,31.97
2018-06-05T15:52:29.328Z,30.17
2018-06-05T15:54:57.470Z,30.73
2018-06-05T15:57:25.621Z,28.40
2018-06-05T15:59:53.782Z,28.73
2018-06-05T16:02:21.917Z,30.00
2018-06-05T16:04:50.067Z,32.63
2018-06-05T16:07:18.234Z,29.93
2018-06-05T16:09:46.373Z,30.00
2018-06-05T16:12:14.516Z,30.70
2018-06-05T16:14:42.686Z,32.67
2018-06-05T16:17:10.823Z,28.47
2018-06-05T16:19:38.963Z,31.23
2018-06-05T16:22:07.137Z,31.63
2018-06-05T16:24:35.268Z,30.87
2018-06-05T16:27:03.425Z,31.27
2018-06-05T16:29:31.593Z,31.97
2018-06-05T16:32:00.057Z,31.00
2018-06-05T16:34:28.925Z,29.87
2018-06-05T16:36:57.177Z,28.80
2018-06-05T16:39:27.874Z,31.00
2018-06-05T16:41:55.997Z,36.60
2018-06-05T16:44:25.163Z,30.23
2018-06-05T16:46:55.320Z,33.77
2018-06-05T16:49:23.448Z,28.47
2018-06-05T16:51:52.172Z,30.00
2018-06-05T16:54:20.300Z,31.60
2018-06-05T16:56:49.004Z,30.33
2018-06-05T16:59:17.159Z,34.07
2018-06-05T17:01:45.291Z,31.07
2018-06-05T17:04:13.483Z,32.57
2018-06-05T17:06:41.649Z,31.80
2018-06-05T17:09:09.771Z,32.63
2018-06-05T17:11:37.917Z,32.97
2018-06-05T17:14:06.070Z,33.47
2018-06-05T17:16:34.200Z,34.60
2018-06-05T17:19:02.370Z,35.33
2018-06-05T17:21:30.557Z,30.73
2018-06-05T17:23:58.696Z,33.40
2018-06-05T17:26:26.832Z,32.43
2018-06-05T17:28:55.006Z,35.33
2018-06-05T17:31:23.144Z,32.60
2018-06-05T17:33:51.042Z,33.33
2018-06-05T17:36:19.185Z,30.23
2018-06-05T17:38:47.323Z,33.97
2018-06-05T17:41:15.465Z,34.97
2018-06-05T17:43:43.632Z,31.13
2018-06-05T17:46:11.765Z,31.63
2018-06-05T17:48:39.926Z,32.47
2018-06-05T17:51:08.239Z,35.20
2018-06-05T17:53:36.304Z,34.00
2018-06-05T17:56:04.656Z,35.87
2018-06-05T17:58:32.808Z,34.30
2018-06-05T18:01:00.955Z,35.87
2018-06-05T18:03:29.096Z,41.03
2018-06-05T18:05:57.245Z,36.40
2018-06-05T18:08:25.395Z,35.03
2018-06-05T18:10:53.525Z,34.50
2018-06-05T18:13:21.669Z,34.37
2018-06-05T18:15:49.796Z,34.30
2018-06-05T18:18:17.928Z,35.23
2018-06-05T18:20:46.080Z,33.00
2018-06-05T18:23:14.216Z,32.87
2018-06-05T18:25:42.361Z,34.53
2018-06-05T18:28:10.518Z,32.50
2018-06-05T18:30:38.684Z,33.63
2018-06-05T18:33:06.829Z,30.97
2018-06-05T18:35:35.001Z,30.17
2018-06-05T18:38:03.142Z,34.57
2018-06-05T18:40:31.292Z,30.97
2018-06-05T18:42:59.454Z,31.73
2018-06-05T18:45:27.602Z,28.67
2018-06-05T18:47:55.740Z,31.03
2018-06-05T18:50:23.917Z,32.70
2018-06-05T18:52:52.127Z,29.37
2018-06-05T18:55:20.223Z,29.53
2018-06-05T18:57:48.468Z,30.30
2018-06-05T19:00:17.933Z,28.70
2018-06-05T19:02:46.092Z,28.67
2018-06-05T19:05:14.236Z,30.97
2018-06-05T19:07:42.407Z,30.57
2018-06-05T19:10:12.901Z,27.90
2018-06-05T19:12:41.073Z,26.37
2018-06-05T19:15:09.219Z,28.17
2018-06-05T19:17:37.402Z,28.67
2018-06-05T19:20:05.668Z,30.97
2018-06-05T19:22:33.808Z,27.70
2018-06-05T19:25:01.970Z,28.50
2018-06-05T19:27:30.136Z,28.43
2018-06-05T19:29:58.327Z,29.90
2018-06-05T19:32:26.465Z,25.90
2018-06-05T19:34:54.630Z,25.50
2018-06-05T19:37:22.772Z,30.57
2018-06-05T19:39:50.920Z,27.13
2018-06-05T19:42:19.071Z,31.80
2018-06-05T19:44:47.227Z,33.50
2018-06-05T19:47:17.213Z,28.87
2018-06-05T19:49:45.618Z,28.63
2018-06-05T19:52:14.682Z,30.23
2018-06-05T19:54:42.860Z,29.07
2018-06-05T19:57:10.989Z,27.37
2018-06-05T19:59:40.148Z,29.80
2018-06-05T20:02:08.433Z,28.13
2018-06-05T20:04:36.658Z,30.93
2018-06-05T20:07:04.849Z,28.23
2018-06-05T20:09:32.874Z,34.67
2018-06-05T20:12:01.084Z,30.00
2018-06-05T20:14:29.522Z,29.97
2018-06-05T20:16:58.089Z,29.23
2018-06-05T20:19:26.512Z,29.93
2018-06-05T20:21:54.725Z,34.90
2018-06-05T20:24:22.977Z,33.13
2018-06-05T20:26:51.177Z,36.07
2018-06-05T20:29:19.372Z,35.07
2018-06-05T20:31:47.384Z,32.60
2018-06-05T20:34:15.591Z,33.43
2018-06-05T20:36:43.787Z,35.53
2018-06-05T20:39:12.038Z,36.40
2018-06-05T20:41:40.266Z,30.77
2018-06-05T20:44:08.481Z,30.80
2018-06-05T20:46:36.687Z,31.63
2018-06-05T20:49:05.200Z,35.27
2018-06-05T20:51:33.404Z,34.17
2018-06-05T20:54:01.660Z,34.50
2018-06-05T20:56:29.895Z,38.50
2018-06-05T20:58:58.105Z,33.20
2018-06-05T21:01:26.349Z,33.13
2018-06-05T21:03:54.535Z,35.07
2018-06-05T21:06:22.755Z,38.20
2018-06-05T21:08:51.008Z,33.73
2018-06-05T21:11:19.220Z,37.63
2018-06-05T21:13:47.438Z,35.47
2018-06-05T21:16:15.691Z,37.17
2018-06-05T21:18:43.897Z,36.10
2018-06-05T21:21:12.108Z,36.43
2018-06-05T21:23:40.364Z,36.87
2018-06-05T21:26:08.580Z,37.73
2018-06-05T21:28:36.798Z,39.23
2018-06-05T21:31:04.992Z,39.30
2018-06-05T21:33:33.183Z,39.87
2018-06-05T21:36:01.371Z,37.30
2018-06-05T21:38:29.912Z,38.20
2018-06-05T21:41:00.008Z,38.13
2018-06-05T21:43:28.264Z,36.03
2018-06-05T21:45:56.480Z,41.60
2018-06-05T21:48:24.673Z,39.53
2018-06-05T21:50:52.872Z,39.57
2018-06-05T21:53:21.098Z,39.63
2018-06-05T21:55:49.314Z,40.17
2018-06-05T21:58:17.524Z,37.93
2018-06-05T22:00:45.720Z,40.70
2018-06-05T22:03:13.925Z,41.47
2018-06-05T22:05:42.121Z,41.07
2018-06-05T22:08:10.432Z,42.87
2018-06-05T22:10:38.600Z,40.33
2018-06-05T22:13:06.787Z,38.43
2018-06-05T22:15:34.968Z,37.83
2018-06-05T22:18:03.163Z,40.70
2018-06-05T22:20:31.366Z,38.00
2018-06-05T22:22:59.553Z,40.07
2018-06-05T22:25:27.745Z,41.60
2018-06-05T22:27:55.954Z,40.97
2018-06-05T22:30:24.145Z,43.73
2018-06-05T22:32:52.354Z,37.90
2018-06-05T22:35:20.549Z,41.23
2018-06-05T22:37:48.779Z,40.37
